sensor_id;sensor_type;location;lat;lon;timestamp;P1;durP1;ratioP1;P2;durP2;ratioP2
23088;SDS011;11713;48.506;8.966;2022-08-19T00:00:01;15.27;;;13.73;;
23088;SDS011;11713;48.506;8.966;2022-08-19T00:02:32;13.80;;;12.45;;
23088;SDS011;11713;48.506;8.966;2022-08-19T00:04:59;15.50;;;14.10;;
23088;SDS011;11713;48.506;8.966;2022-08-19T00:07:24;15.07;;;13.68;;
23088;SDS011;11713;48.506;8.966;2022-08-19T00:09:50;15.60;;;14.10;;
23088;SDS011;11713;48.506;8.966;2022-08-19T00:12:16;17.50;;;15.82;;
23088;SDS011;11713;48.506;8.966;2022-08-19T00:14:42;17.05;;;15.30;;
23088;SDS011;11713;48.506;8.966;2022-08-19T00:17:08;16.35;;;14.90;;
23088;SDS011;11713;48.506;8.966;2022-08-19T00:19:35;16.67;;;15.18;;
23088;SDS011;11713;48.506;8.966;2022-08-19T00:22:01;15.65;;;14.02;;
23088;SDS011;11713;48.506;8.966;2022-08-19T00:24:28;15.25;;;13.75;;
23088;SDS011;11713;48.506;8.966;2022-08-19T00:26:55;17.15;;;15.55;;
23088;SDS011;11713;48.506;8.966;2022-08-19T00:29:22;18.83;;;17.02;;
23088;SDS011;11713;48.506;8.966;2022-08-19T00:31:49;17.23;;;15.63;;
23088;SDS011;11713;48.506;8.966;2022-08-19T00:34:18;17.25;;;15.52;;
23088;SDS011;11713;48.506;8.966;2022-08-19T00:36:44;17.48;;;15.68;;
23088;SDS011;11713;48.506;8.966;2022-08-19T00:39:11;16.13;;;14.63;;
23088;SDS011;11713;48.506;8.966;2022-08-19T00:41:38;16.85;;;15.27;;
23088;SDS011;11713;48.506;8.966;2022-08-19T00:46:43;17.67;;;15.98;;
23088;SDS011;11713;48.506;8.966;2022-08-19T00:49:19;16.88;;;15.15;;
23088;SDS011;11713;48.506;8.966;2022-08-19T00:51:47;19.02;;;17.23;;
23088;SDS011;11713;48.506;8.966;2022-08-19T00:54:16;17.75;;;15.95;;
23088;SDS011;11713;48.506;8.966;2022-08-19T00:56:43;18.33;;;16.52;;
23088;SDS011;11713;48.506;8.966;2022-08-19T00:59:10;19.58;;;17.48;;
23088;SDS011;11713;48.506;8.966;2022-08-19T01:01:37;19.38;;;17.42;;
23088;SDS011;11713;48.506;8.966;2022-08-19T01:04:05;17.98;;;16.15;;
23088;SDS011;11713;48.506;8.966;2022-08-19T01:06:32;18.52;;;16.63;;
23088;SDS011;11713;48.506;8.966;2022-08-19T01:09:00;19.55;;;17.65;;
23088;SDS011;11713;48.506;8.966;2022-08-19T01:11:30;19.15;;;16.80;;
23088;SDS011;11713;48.506;8.966;2022-08-19T01:13:58;19.50;;;17.50;;
23088;SDS011;11713;48.506;8.966;2022-08-19T01:16:25;21.15;;;17.58;;
23088;SDS011;11713;48.506;8.966;2022-08-19T01:18:53;18.85;;;16.85;;
23088;SDS011;11713;48.506;8.966;2022-08-19T01:24:04;20.02;;;17.92;;
23088;SDS011;11713;48.506;8.966;2022-08-19T01:26:31;20.05;;;17.98;;
23088;SDS011;11713;48.506;8.966;2022-08-19T01:29:02;19.15;;;17.15;;
23088;SDS011;11713;48.506;8.966;2022-08-19T01:31:29;20.60;;;18.40;;
23088;SDS011;11713;48.506;8.966;2022-08-19T01:33:56;21.52;;;19.30;;
23088;SDS011;11713;48.506;8.966;2022-08-19T01:36:33;20.15;;;18.05;;
23088;SDS011;11713;48.506;8.966;2022-08-19T01:39:05;22.17;;;19.88;;
23088;SDS011;11713;48.506;8.966;2022-08-19T01:41:34;22.08;;;19.70;;
23088;SDS011;11713;48.506;8.966;2022-08-19T01:44:00;21.83;;;19.63;;
23088;SDS011;11713;48.506;8.966;2022-08-19T01:46:41;21.17;;;18.98;;
23088;SDS011;11713;48.506;8.966;2022-08-19T01:51:54;20.42;;;18.25;;
23088;SDS011;11713;48.506;8.966;2022-08-19T01:54:21;22.38;;;19.83;;
23088;SDS011;11713;48.506;8.966;2022-08-19T01:56:49;21.55;;;19.25;;
23088;SDS011;11713;48.506;8.966;2022-08-19T01:59:20;22.60;;;20.17;;
23088;SDS011;11713;48.506;8.966;2022-08-19T02:01:47;23.80;;;19.95;;
23088;SDS011;11713;48.506;8.966;2022-08-19T02:04:13;27.55;;;21.38;;
23088;SDS011;11713;48.506;8.966;2022-08-19T02:06:39;23.77;;;20.15;;
23088;SDS011;11713;48.506;8.966;2022-08-19T02:09:06;23.75;;;19.67;;
23088;SDS011;11713;48.506;8.966;2022-08-19T02:11:33;23.75;;;21.05;;
23088;SDS011;11713;48.506;8.966;2022-08-19T02:14:02;24.52;;;21.25;;
23088;SDS011;11713;48.506;8.966;2022-08-19T02:16:30;23.20;;;20.70;;
23088;SDS011;11713;48.506;8.966;2022-08-19T02:18:57;23.13;;;20.42;;
23088;SDS011;11713;48.506;8.966;2022-08-19T02:21:25;24.55;;;21.95;;
23088;SDS011;11713;48.506;8.966;2022-08-19T02:23:52;25.27;;;21.38;;
23088;SDS011;11713;48.506;8.966;2022-08-19T02:26:18;25.38;;;20.92;;
23088;SDS011;11713;48.506;8.966;2022-08-19T02:28:44;26.42;;;21.83;;
23088;SDS011;11713;48.506;8.966;2022-08-19T02:31:11;21.48;;;18.85;;
23088;SDS011;11713;48.506;8.966;2022-08-19T02:33:40;22.48;;;18.88;;
23088;SDS011;11713;48.506;8.966;2022-08-19T02:36:07;23.00;;;20.42;;
23088;SDS011;11713;48.506;8.966;2022-08-19T02:41:33;25.20;;;19.63;;
23088;SDS011;11713;48.506;8.966;2022-08-19T02:44:00;25.75;;;22.20;;
23088;SDS011;11713;48.506;8.966;2022-08-19T02:46:30;23.38;;;19.98;;
23088;SDS011;11713;48.506;8.966;2022-08-19T02:49:01;23.95;;;21.45;;
23088;SDS011;11713;48.506;8.966;2022-08-19T02:51:32;23.35;;;20.63;;
23088;SDS011;11713;48.506;8.966;2022-08-19T02:54:03;25.30;;;20.80;;
23088;SDS011;11713;48.506;8.966;2022-08-19T02:56:30;23.38;;;20.08;;
23088;SDS011;11713;48.506;8.966;2022-08-19T02:58:59;25.80;;;21.25;;
23088;SDS011;11713;48.506;8.966;2022-08-19T03:01:26;24.27;;;21.50;;
23088;SDS011;11713;48.506;8.966;2022-08-19T03:03:54;24.92;;;21.25;;
23088;SDS011;11713;48.506;8.966;2022-08-19T03:06:21;23.55;;;20.92;;
23088;SDS011;11713;48.506;8.966;2022-08-19T03:08:48;25.52;;;22.15;;
23088;SDS011;11713;48.506;8.966;2022-08-19T03:11:19;24.17;;;21.48;;
23088;SDS011;11713;48.506;8.966;2022-08-19T03:13:48;26.73;;;22.67;;
23088;SDS011;11713;48.506;8.966;2022-08-19T03:16:17;26.83;;;22.40;;
23088;SDS011;11713;48.506;8.966;2022-08-19T03:18:44;23.58;;;21.00;;
23088;SDS011;11713;48.506;8.966;2022-08-19T03:21:14;25.90;;;20.83;;
23088;SDS011;11713;48.506;8.966;2022-08-19T03:23:45;24.50;;;21.55;;
23088;SDS011;11713;48.506;8.966;2022-08-19T03:26:12;27.50;;;22.58;;
23088;SDS011;11713;48.506;8.966;2022-08-19T03:28:40;25.45;;;21.90;;
23088;SDS011;11713;48.506;8.966;2022-08-19T03:31:09;28.27;;;22.08;;
23088;SDS011;11713;48.506;8.966;2022-08-19T03:33:37;25.33;;;22.48;;
23088;SDS011;11713;48.506;8.966;2022-08-19T03:36:05;25.58;;;21.73;;
23088;SDS011;11713;48.506;8.966;2022-08-19T03:38:46;23.45;;;20.95;;
23088;SDS011;11713;48.506;8.966;2022-08-19T03:41:15;27.83;;;22.35;;
23088;SDS011;11713;48.506;8.966;2022-08-19T03:43:43;25.67;;;22.73;;
23088;SDS011;11713;48.506;8.966;2022-08-19T03:46:16;25.88;;;22.35;;
23088;SDS011;11713;48.506;8.966;2022-08-19T03:48:47;25.60;;;21.45;;
23088;SDS011;11713;48.506;8.966;2022-08-19T03:51:20;24.38;;;21.42;;
23088;SDS011;11713;48.506;8.966;2022-08-19T03:53:49;28.52;;;22.92;;
23088;SDS011;11713;48.506;8.966;2022-08-19T03:56:16;24.88;;;22.27;;
23088;SDS011;11713;48.506;8.966;2022-08-19T03:58:42;25.95;;;22.35;;
23088;SDS011;11713;48.506;8.966;2022-08-19T04:01:17;25.27;;;22.33;;
23088;SDS011;11713;48.506;8.966;2022-08-19T04:03:45;28.55;;;23.67;;
23088;SDS011;11713;48.506;8.966;2022-08-19T04:06:16;24.90;;;21.92;;
23088;SDS011;11713;48.506;8.966;2022-08-19T04:08:43;26.20;;;22.48;;
23088;SDS011;11713;48.506;8.966;2022-08-19T04:11:15;24.88;;;21.73;;
23088;SDS011;11713;48.506;8.966;2022-08-19T04:13:46;27.30;;;21.52;;
23088;SDS011;11713;48.506;8.966;2022-08-19T04:16:13;22.83;;;20.38;;
23088;SDS011;11713;48.506;8.966;2022-08-19T04:18:40;26.75;;;23.42;;
23088;SDS011;11713;48.506;8.966;2022-08-19T04:21:06;28.58;;;23.90;;
23088;SDS011;11713;48.506;8.966;2022-08-19T04:23:33;29.50;;;23.42;;
23088;SDS011;11713;48.506;8.966;2022-08-19T04:26:01;29.17;;;24.23;;
23088;SDS011;11713;48.506;8.966;2022-08-19T04:28:27;29.65;;;24.65;;
23088;SDS011;11713;48.506;8.966;2022-08-19T04:30:54;27.73;;;24.40;;
23088;SDS011;11713;48.506;8.966;2022-08-19T04:33:22;26.88;;;23.52;;
23088;SDS011;11713;48.506;8.966;2022-08-19T04:35:50;26.63;;;23.83;;
23088;SDS011;11713;48.506;8.966;2022-08-19T04:38:18;29.52;;;25.30;;
23088;SDS011;11713;48.506;8.966;2022-08-19T04:40:48;28.45;;;24.23;;
23088;SDS011;11713;48.506;8.966;2022-08-19T04:43:35;29.10;;;25.05;;
23088;SDS011;11713;48.506;8.966;2022-08-19T04:46:07;28.38;;;25.17;;
23088;SDS011;11713;48.506;8.966;2022-08-19T04:48:35;28.60;;;24.70;;
23088;SDS011;11713;48.506;8.966;2022-08-19T04:51:05;29.92;;;25.95;;
23088;SDS011;11713;48.506;8.966;2022-08-19T04:53:33;31.20;;;25.52;;
23088;SDS011;11713;48.506;8.966;2022-08-19T04:56:03;29.20;;;25.35;;
23088;SDS011;11713;48.506;8.966;2022-08-19T04:58:32;29.02;;;25.38;;
23088;SDS011;11713;48.506;8.966;2022-08-19T05:01:20;28.85;;;25.05;;
23088;SDS011;11713;48.506;8.966;2022-08-19T05:03:47;27.50;;;24.17;;
23088;SDS011;11713;48.506;8.966;2022-08-19T05:09:37;30.17;;;26.60;;
23088;SDS011;11713;48.506;8.966;2022-08-19T05:12:03;32.08;;;26.10;;
23088;SDS011;11713;48.506;8.966;2022-08-19T05:14:31;32.60;;;25.63;;
23088;SDS011;11713;48.506;8.966;2022-08-19T05:16:56;29.38;;;25.58;;
23088;SDS011;11713;48.506;8.966;2022-08-19T05:19:22;30.40;;;26.00;;
23088;SDS011;11713;48.506;8.966;2022-08-19T05:22:07;32.83;;;27.10;;
23088;SDS011;11713;48.506;8.966;2022-08-19T05:24:51;30.10;;;26.58;;
23088;SDS011;11713;48.506;8.966;2022-08-19T05:27:17;29.52;;;26.00;;
23088;SDS011;11713;48.506;8.966;2022-08-19T05:29:43;32.88;;;27.15;;
23088;SDS011;11713;48.506;8.966;2022-08-19T05:32:09;33.78;;;28.67;;
23088;SDS011;11713;48.506;8.966;2022-08-19T05:34:36;31.63;;;26.42;;
23088;SDS011;11713;48.506;8.966;2022-08-19T05:37:03;32.53;;;26.23;;
23088;SDS011;11713;48.506;8.966;2022-08-19T05:39:30;33.28;;;27.05;;
23088;SDS011;11713;48.506;8.966;2022-08-19T05:41:59;31.77;;;26.33;;
23088;SDS011;11713;48.506;8.966;2022-08-19T05:44:38;28.77;;;25.60;;
23088;SDS011;11713;48.506;8.966;2022-08-19T05:47:09;28.80;;;25.70;;
23088;SDS011;11713;48.506;8.966;2022-08-19T05:49:36;30.13;;;25.55;;
23088;SDS011;11713;48.506;8.966;2022-08-19T05:52:04;27.80;;;24.55;;
23088;SDS011;11713;48.506;8.966;2022-08-19T05:54:31;30.20;;;24.73;;
23088;SDS011;11713;48.506;8.966;2022-08-19T06:00:16;31.33;;;25.63;;
23088;SDS011;11713;48.506;8.966;2022-08-19T06:02:42;30.92;;;25.70;;
23088;SDS011;11713;48.506;8.966;2022-08-19T06:05:08;31.67;;;27.13;;
23088;SDS011;11713;48.506;8.966;2022-08-19T06:07:35;29.45;;;24.60;;
23088;SDS011;11713;48.506;8.966;2022-08-19T06:10:03;29.35;;;24.67;;
23088;SDS011;11713;48.506;8.966;2022-08-19T06:12:31;28.58;;;25.13;;
23088;SDS011;11713;48.506;8.966;2022-08-19T06:14:59;28.85;;;24.70;;
23088;SDS011;11713;48.506;8.966;2022-08-19T06:17:28;33.30;;;26.58;;
23088;SDS011;11713;48.506;8.966;2022-08-19T06:19:55;27.48;;;23.42;;
23088;SDS011;11713;48.506;8.966;2022-08-19T06:22:21;31.17;;;25.67;;
23088;SDS011;11713;48.506;8.966;2022-08-19T06:24:47;30.95;;;26.85;;
23088;SDS011;11713;48.506;8.966;2022-08-19T06:27:13;31.13;;;25.15;;
23088;SDS011;11713;48.506;8.966;2022-08-19T06:29:39;31.13;;;24.67;;
23088;SDS011;11713;48.506;8.966;2022-08-19T06:32:04;29.00;;;25.02;;
23088;SDS011;11713;48.506;8.966;2022-08-19T06:34:31;28.85;;;25.40;;
23088;SDS011;11713;48.506;8.966;2022-08-19T06:36:59;31.17;;;26.25;;
23088;SDS011;11713;48.506;8.966;2022-08-19T06:39:28;29.00;;;24.90;;
23088;SDS011;11713;48.506;8.966;2022-08-19T06:41:56;31.38;;;27.23;;
23088;SDS011;11713;48.506;8.966;2022-08-19T06:44:30;32.88;;;28.75;;
23088;SDS011;11713;48.506;8.966;2022-08-19T06:47:00;32.60;;;27.25;;
23088;SDS011;11713;48.506;8.966;2022-08-19T06:49:28;30.02;;;25.63;;
23088;SDS011;11713;48.506;8.966;2022-08-19T06:51:56;32.65;;;26.85;;
23088;SDS011;11713;48.506;8.966;2022-08-19T06:54:23;31.77;;;25.92;;
23088;SDS011;11713;48.506;8.966;2022-08-19T06:56:51;29.73;;;25.90;;
23088;SDS011;11713;48.506;8.966;2022-08-19T06:59:18;30.85;;;25.92;;
23088;SDS011;11713;48.506;8.966;2022-08-19T07:01:59;31.02;;;26.88;;
23088;SDS011;11713;48.506;8.966;2022-08-19T07:07:23;33.17;;;27.40;;
23088;SDS011;11713;48.506;8.966;2022-08-19T07:09:49;29.20;;;26.00;;
23088;SDS011;11713;48.506;8.966;2022-08-19T07:12:18;25.95;;;22.80;;
23088;SDS011;11713;48.506;8.966;2022-08-19T07:14:44;30.95;;;27.55;;
23088;SDS011;11713;48.506;8.966;2022-08-19T07:17:11;28.85;;;25.75;;
23088;SDS011;11713;48.506;8.966;2022-08-19T07:19:38;35.25;;;26.48;;
23088;SDS011;11713;48.506;8.966;2022-08-19T07:22:05;29.15;;;25.50;;
23088;SDS011;11713;48.506;8.966;2022-08-19T07:24:32;29.30;;;26.17;;
23088;SDS011;11713;48.506;8.966;2022-08-19T07:27:00;31.17;;;27.02;;
23088;SDS011;11713;48.506;8.966;2022-08-19T07:29:29;29.80;;;26.13;;
23088;SDS011;11713;48.506;8.966;2022-08-19T07:31:56;28.60;;;25.55;;
23088;SDS011;11713;48.506;8.966;2022-08-19T07:34:24;30.35;;;25.15;;
23088;SDS011;11713;48.506;8.966;2022-08-19T07:36:51;31.20;;;27.30;;
23088;SDS011;11713;48.506;8.966;2022-08-19T07:39:19;32.67;;;27.67;;
23088;SDS011;11713;48.506;8.966;2022-08-19T07:41:47;28.50;;;24.52;;
23088;SDS011;11713;48.506;8.966;2022-08-19T07:44:14;27.73;;;24.73;;
23088;SDS011;11713;48.506;8.966;2022-08-19T07:46:42;28.98;;;25.95;;
23088;SDS011;11713;48.506;8.966;2022-08-19T07:49:10;29.45;;;26.25;;
23088;SDS011;11713;48.506;8.966;2022-08-19T07:51:43;29.55;;;26.35;;
23088;SDS011;11713;48.506;8.966;2022-08-19T07:54:10;27.90;;;24.88;;
23088;SDS011;11713;48.506;8.966;2022-08-19T07:56:36;25.60;;;22.90;;
23088;SDS011;11713;48.506;8.966;2022-08-19T07:59:03;25.15;;;22.45;;
23088;SDS011;11713;48.506;8.966;2022-08-19T08:01:30;26.63;;;23.73;;
23088;SDS011;11713;48.506;8.966;2022-08-19T08:03:56;28.13;;;24.90;;
23088;SDS011;11713;48.506;8.966;2022-08-19T08:06:42;27.90;;;24.88;;
23088;SDS011;11713;48.506;8.966;2022-08-19T08:09:29;26.58;;;23.58;;
23088;SDS011;11713;48.506;8.966;2022-08-19T08:11:58;27.13;;;24.15;;
23088;SDS011;11713;48.506;8.966;2022-08-19T08:14:31;23.10;;;20.67;;
23088;SDS011;11713;48.506;8.966;2022-08-19T08:17:00;24.52;;;21.90;;
23088;SDS011;11713;48.506;8.966;2022-08-19T08:19:27;24.00;;;21.40;;
23088;SDS011;11713;48.506;8.966;2022-08-19T08:21:54;23.20;;;20.70;;
23088;SDS011;11713;48.506;8.966;2022-08-19T08:24:22;25.05;;;22.30;;
23088;SDS011;11713;48.506;8.966;2022-08-19T08:26:49;26.13;;;22.55;;
23088;SDS011;11713;48.506;8.966;2022-08-19T08:29:15;23.00;;;20.67;;
23088;SDS011;11713;48.506;8.966;2022-08-19T08:31:41;23.35;;;20.95;;
23088;SDS011;11713;48.506;8.966;2022-08-19T08:36:41;21.27;;;18.77;;
23088;SDS011;11713;48.506;8.966;2022-08-19T08:39:10;19.85;;;17.23;;
23088;SDS011;11713;48.506;8.966;2022-08-19T08:45:02;21.30;;;19.08;;
23088;SDS011;11713;48.506;8.966;2022-08-19T08:47:12;20.23;;;17.58;;
23088;SDS011;11713;48.506;8.966;2022-08-19T08:52:21;20.63;;;18.08;;
23088;SDS011;11713;48.506;8.966;2022-08-19T08:54:55;19.58;;;17.67;;
23088;SDS011;11713;48.506;8.966;2022-08-19T08:57:26;17.75;;;15.85;;
23088;SDS011;11713;48.506;8.966;2022-08-19T08:59:56;19.58;;;16.73;;
23088;SDS011;11713;48.506;8.966;2022-08-19T09:02:22;17.35;;;15.65;;
23088;SDS011;11713;48.506;8.966;2022-08-19T09:04:48;19.85;;;17.17;;
23088;SDS011;11713;48.506;8.966;2022-08-19T09:07:23;18.05;;;16.23;;
23088;SDS011;11713;48.506;8.966;2022-08-19T09:13:03;21.67;;;18.15;;
23088;SDS011;11713;48.506;8.966;2022-08-19T09:15:40;21.00;;;18.92;;
23088;SDS011;11713;48.506;8.966;2022-08-19T09:18:13;18.85;;;16.85;;
23088;SDS011;11713;48.506;8.966;2022-08-19T09:20:41;20.65;;;18.40;;
23088;SDS011;11713;48.506;8.966;2022-08-19T09:23:07;20.35;;;18.25;;
23088;SDS011;11713;48.506;8.966;2022-08-19T09:25:34;19.88;;;17.92;;
23088;SDS011;11713;48.506;8.966;2022-08-19T09:28:00;19.63;;;17.60;;
23088;SDS011;11713;48.506;8.966;2022-08-19T09:30:30;20.15;;;18.05;;
23088;SDS011;11713;48.506;8.966;2022-08-19T09:32:58;22.15;;;19.88;;
23088;SDS011;11713;48.506;8.966;2022-08-19T09:35:25;19.67;;;17.58;;
23088;SDS011;11713;48.506;8.966;2022-08-19T09:37:57;22.92;;;19.67;;
23088;SDS011;11713;48.506;8.966;2022-08-19T09:40:24;21.15;;;19.05;;
23088;SDS011;11713;48.506;8.966;2022-08-19T09:42:50;20.88;;;18.67;;
23088;SDS011;11713;48.506;8.966;2022-08-19T09:45:18;21.92;;;19.73;;
23088;SDS011;11713;48.506;8.966;2022-08-19T09:47:51;22.40;;;20.15;;
23088;SDS011;11713;48.506;8.966;2022-08-19T09:50:18;22.40;;;20.00;;
23088;SDS011;11713;48.506;8.966;2022-08-19T09:52:44;21.02;;;18.85;;
23088;SDS011;11713;48.506;8.966;2022-08-19T09:55:11;22.27;;;19.75;;
23088;SDS011;11713;48.506;8.966;2022-08-19T09:57:38;23.38;;;20.80;;
23088;SDS011;11713;48.506;8.966;2022-08-19T10:00:05;22.75;;;20.35;;
23088;SDS011;11713;48.506;8.966;2022-08-19T10:02:33;22.15;;;20.02;;
23088;SDS011;11713;48.506;8.966;2022-08-19T10:04:59;22.45;;;20.17;;
23088;SDS011;11713;48.506;8.966;2022-08-19T10:07:43;20.40;;;18.45;;
23088;SDS011;11713;48.506;8.966;2022-08-19T10:10:09;23.70;;;21.30;;
23088;SDS011;11713;48.506;8.966;2022-08-19T10:12:36;22.13;;;19.88;;
23088;SDS011;11713;48.506;8.966;2022-08-19T10:15:02;23.17;;;20.67;;
23088;SDS011;11713;48.506;8.966;2022-08-19T10:17:31;21.55;;;19.45;;
23088;SDS011;11713;48.506;8.966;2022-08-19T10:20:00;21.95;;;19.63;;
23088;SDS011;11713;48.506;8.966;2022-08-19T10:22:28;21.77;;;19.65;;
23088;SDS011;11713;48.506;8.966;2022-08-19T10:27:31;18.58;;;16.73;;
23088;SDS011;11713;48.506;8.966;2022-08-19T10:29:57;22.85;;;20.55;;
23088;SDS011;11713;48.506;8.966;2022-08-19T10:32:23;21.45;;;18.95;;
23088;SDS011;11713;48.506;8.966;2022-08-19T10:34:50;21.30;;;19.20;;
23088;SDS011;11713;48.506;8.966;2022-08-19T10:37:17;21.23;;;19.13;;
23088;SDS011;11713;48.506;8.966;2022-08-19T10:39:43;22.58;;;20.35;;
23088;SDS011;11713;48.506;8.966;2022-08-19T10:42:14;21.10;;;19.10;;
23088;SDS011;11713;48.506;8.966;2022-08-19T10:44:41;20.52;;;18.42;;
23088;SDS011;11713;48.506;8.966;2022-08-19T10:47:07;21.75;;;19.58;;
23088;SDS011;11713;48.506;8.966;2022-08-19T10:49:33;20.75;;;18.67;;
23088;SDS011;11713;48.506;8.966;2022-08-19T10:52:19;19.05;;;17.25;;
23088;SDS011;11713;48.506;8.966;2022-08-19T10:55:04;21.10;;;19.10;;
23088;SDS011;11713;48.506;8.966;2022-08-19T10:57:57;23.50;;;21.00;;
23088;SDS011;11713;48.506;8.966;2022-08-19T11:00:24;22.92;;;20.60;;
23088;SDS011;11713;48.506;8.966;2022-08-19T11:02:51;22.05;;;19.80;;
23088;SDS011;11713;48.506;8.966;2022-08-19T11:05:17;28.83;;;26.02;;
23088;SDS011;11713;48.506;8.966;2022-08-19T11:07:44;28.80;;;25.90;;
23088;SDS011;11713;48.506;8.966;2022-08-19T11:10:11;27.83;;;25.00;;
23088;SDS011;11713;48.506;8.966;2022-08-19T11:12:38;30.55;;;27.45;;
23088;SDS011;11713;48.506;8.966;2022-08-19T11:15:06;25.35;;;22.73;;
23088;SDS011;11713;48.506;8.966;2022-08-19T11:17:37;27.00;;;24.27;;
23088;SDS011;11713;48.506;8.966;2022-08-19T11:20:09;28.67;;;25.67;;
23088;SDS011;11713;48.506;8.966;2022-08-19T11:22:37;26.17;;;23.42;;
23088;SDS011;11713;48.506;8.966;2022-08-19T11:25:03;25.17;;;22.60;;
23088;SDS011;11713;48.506;8.966;2022-08-19T11:27:30;23.70;;;21.40;;
23088;SDS011;11713;48.506;8.966;2022-08-19T11:29:56;30.42;;;27.15;;
23088;SDS011;11713;48.506;8.966;2022-08-19T11:32:22;31.13;;;27.48;;
23088;SDS011;11713;48.506;8.966;2022-08-19T11:34:48;32.17;;;28.67;;
23088;SDS011;11713;48.506;8.966;2022-08-19T11:37:14;28.38;;;25.17;;
23088;SDS011;11713;48.506;8.966;2022-08-19T11:39:40;29.02;;;25.85;;
23088;SDS011;11713;48.506;8.966;2022-08-19T11:42:06;28.70;;;25.52;;
23088;SDS011;11713;48.506;8.966;2022-08-19T11:44:52;29.25;;;25.98;;
23088;SDS011;11713;48.506;8.966;2022-08-19T11:47:18;28.23;;;25.23;;
23088;SDS011;11713;48.506;8.966;2022-08-19T11:49:45;29.42;;;26.48;;
23088;SDS011;11713;48.506;8.966;2022-08-19T11:52:11;28.10;;;25.05;;
23088;SDS011;11713;48.506;8.966;2022-08-19T11:54:37;29.60;;;26.60;;
23088;SDS011;11713;48.506;8.966;2022-08-19T11:57:03;25.60;;;23.05;;
23088;SDS011;11713;48.506;8.966;2022-08-19T11:59:30;28.38;;;25.48;;
23088;SDS011;11713;48.506;8.966;2022-08-19T12:01:56;28.20;;;25.30;;
23088;SDS011;11713;48.506;8.966;2022-08-19T12:04:22;31.33;;;28.00;;
23088;SDS011;11713;48.506;8.966;2022-08-19T12:06:48;32.22;;;28.92;;
23088;SDS011;11713;48.506;8.966;2022-08-19T12:09:15;28.95;;;25.98;;
23088;SDS011;11713;48.506;8.966;2022-08-19T12:11:42;31.98;;;28.55;;
23088;SDS011;11713;48.506;8.966;2022-08-19T12:14:09;30.23;;;26.90;;
23088;SDS011;11713;48.506;8.966;2022-08-19T12:16:37;29.70;;;26.40;;
23088;SDS011;11713;48.506;8.966;2022-08-19T12:19:04;29.73;;;26.75;;
23088;SDS011;11713;48.506;8.966;2022-08-19T12:21:32;28.02;;;25.10;;
23088;SDS011;11713;48.506;8.966;2022-08-19T12:24:02;30.88;;;27.70;;
23088;SDS011;11713;48.506;8.966;2022-08-19T12:26:29;27.08;;;24.15;;
23088;SDS011;11713;48.506;8.966;2022-08-19T12:28:56;26.55;;;23.88;;
23088;SDS011;11713;48.506;8.966;2022-08-19T12:31:24;26.40;;;23.60;;
23088;SDS011;11713;48.506;8.966;2022-08-19T12:33:53;27.45;;;24.67;;
23088;SDS011;11713;48.506;8.966;2022-08-19T12:36:19;28.10;;;25.20;;
23088;SDS011;11713;48.506;8.966;2022-08-19T12:38:45;27.00;;;24.25;;
23088;SDS011;11713;48.506;8.966;2022-08-19T12:41:12;27.70;;;24.80;;
23088;SDS011;11713;48.506;8.966;2022-08-19T12:43:40;27.95;;;24.50;;
23088;SDS011;11713;48.506;8.966;2022-08-19T12:46:07;27.02;;;24.33;;
23088;SDS011;11713;48.506;8.966;2022-08-19T12:48:33;27.45;;;24.80;;
23088;SDS011;11713;48.506;8.966;2022-08-19T12:51:00;29.30;;;26.23;;
23088;SDS011;11713;48.506;8.966;2022-08-19T12:53:37;25.40;;;22.90;;
23088;SDS011;11713;48.506;8.966;2022-08-19T12:56:04;25.42;;;22.90;;
23088;SDS011;11713;48.506;8.966;2022-08-19T12:58:30;26.20;;;23.42;;
23088;SDS011;11713;48.506;8.966;2022-08-19T13:00:59;24.40;;;21.85;;
23088;SDS011;11713;48.506;8.966;2022-08-19T13:03:33;24.55;;;21.98;;
23088;SDS011;11713;48.506;8.966;2022-08-19T13:05:59;25.52;;;22.80;;
23088;SDS011;11713;48.506;8.966;2022-08-19T13:08:25;24.13;;;21.73;;
23088;SDS011;11713;48.506;8.966;2022-08-19T13:10:51;24.70;;;22.30;;
23088;SDS011;11713;48.506;8.966;2022-08-19T13:13:16;24.95;;;22.35;;
23088;SDS011;11713;48.506;8.966;2022-08-19T13:15:42;22.65;;;20.42;;
23088;SDS011;11713;48.506;8.966;2022-08-19T13:18:10;23.27;;;20.90;;
23088;SDS011;11713;48.506;8.966;2022-08-19T13:20:38;24.38;;;21.98;;
23088;SDS011;11713;48.506;8.966;2022-08-19T13:23:08;23.40;;;21.10;;
23088;SDS011;11713;48.506;8.966;2022-08-19T13:25:34;23.45;;;21.15;;
23088;SDS011;11713;48.506;8.966;2022-08-19T13:28:01;23.10;;;20.73;;
23088;SDS011;11713;48.506;8.966;2022-08-19T13:30:27;23.95;;;21.65;;
23088;SDS011;11713;48.506;8.966;2022-08-19T13:33:12;23.65;;;21.30;;
23088;SDS011;11713;48.506;8.966;2022-08-19T13:35:42;23.55;;;21.25;;
23088;SDS011;11713;48.506;8.966;2022-08-19T13:38:12;21.25;;;19.17;;
23088;SDS011;11713;48.506;8.966;2022-08-19T13:40:39;22.65;;;20.42;;
23088;SDS011;11713;48.506;8.966;2022-08-19T13:43:05;22.73;;;20.52;;
23088;SDS011;11713;48.506;8.966;2022-08-19T13:45:32;24.92;;;22.42;;
23088;SDS011;11713;48.506;8.966;2022-08-19T13:47:59;48.60;;;43.63;;
23088;SDS011;11713;48.506;8.966;2022-08-19T13:50:30;24.30;;;21.85;;
23088;SDS011;11713;48.506;8.966;2022-08-19T13:52:56;22.48;;;20.25;;
23088;SDS011;11713;48.506;8.966;2022-08-19T13:55:22;22.33;;;20.23;;
23088;SDS011;11713;48.506;8.966;2022-08-19T13:57:52;22.60;;;20.33;;
23088;SDS011;11713;48.506;8.966;2022-08-19T14:00:20;22.55;;;20.25;;
23088;SDS011;11713;48.506;8.966;2022-08-19T14:02:49;24.67;;;22.30;;
23088;SDS011;11713;48.506;8.966;2022-08-19T14:05:17;24.63;;;22.23;;
23088;SDS011;11713;48.506;8.966;2022-08-19T14:07:43;23.77;;;21.38;;
23088;SDS011;11713;48.506;8.966;2022-08-19T14:10:10;23.38;;;21.08;;
23088;SDS011;11713;48.506;8.966;2022-08-19T14:12:38;21.92;;;19.88;;
23088;SDS011;11713;48.506;8.966;2022-08-19T14:15:04;22.55;;;20.40;;
23088;SDS011;11713;48.506;8.966;2022-08-19T14:17:32;24.45;;;22.15;;
23088;SDS011;11713;48.506;8.966;2022-08-19T14:20:03;23.60;;;21.30;;
23088;SDS011;11713;48.506;8.966;2022-08-19T14:22:34;23.52;;;21.30;;
23088;SDS011;11713;48.506;8.966;2022-08-19T14:25:02;23.98;;;21.88;;
23088;SDS011;11713;48.506;8.966;2022-08-19T14:27:29;22.73;;;20.67;;
23088;SDS011;11713;48.506;8.966;2022-08-19T14:29:55;22.55;;;20.27;;
23088;SDS011;11713;48.506;8.966;2022-08-19T14:32:21;22.35;;;20.05;;
23088;SDS011;11713;48.506;8.966;2022-08-19T14:34:47;20.08;;;18.00;;
23088;SDS011;11713;48.506;8.966;2022-08-19T14:37:13;19.90;;;18.10;;
23088;SDS011;11713;48.506;8.966;2022-08-19T14:39:40;19.42;;;17.67;;
23088;SDS011;11713;48.506;8.966;2022-08-19T14:42:07;20.15;;;18.23;;
23088;SDS011;11713;48.506;8.966;2022-08-19T14:44:34;21.58;;;19.42;;
23088;SDS011;11713;48.506;8.966;2022-08-19T14:47:00;23.05;;;20.73;;
23088;SDS011;11713;48.506;8.966;2022-08-19T14:49:26;18.58;;;16.75;;
23088;SDS011;11713;48.506;8.966;2022-08-19T14:51:52;19.23;;;17.33;;
23088;SDS011;11713;48.506;8.966;2022-08-19T14:54:18;21.75;;;19.70;;
23088;SDS011;11713;48.506;8.966;2022-08-19T14:56:43;19.10;;;17.27;;
23088;SDS011;11713;48.506;8.966;2022-08-19T14:59:09;18.98;;;17.23;;
23088;SDS011;11713;48.506;8.966;2022-08-19T15:01:47;19.90;;;17.95;;